Portada
METAR-TAF:

METAR-TAF

Aeroports :

Aeroport de Reykjavík

Reykjavík, Islàndia

latitud: 64-08N, longitud: 021-54W, altitud: 54 m

Observació

L'informe es va fer fa 38 minuts, a les 01:00 UTC
Vent 10 kt del Sud/Sud-Oest
Temperatura 4°C
Humitat 81%
Pressió 1043 hPa
Visibilitat 10 km o més
Cel cobert a una alçada de 4400 ft

METAR: BIRK 300100Z 21010KT 9999 OVC044 04/01 Q1043

Hora: 01:38 (01:38 UTC)

Pronòstic

L'informe es va fer fa 3 hores i 0 minuts, a les 22:38 UTC
Pronòstic vàlid del 30 a les 00 UTC al 31 a les 00 UTC
Vent 15 kt del Sud-Oest
Visibilitat 10 km o més
Núvols disperses a una alçada de 2400 ft
Cel ennuvolat a una alçada de 3000 ft
plugim
Temporalment
l' 30 a les 03 UTC al 31 a les 00 UTC
Visibilitat: 4000 m
Cel ennuvolat a una alçada de 900 ft
Cel cobert a una alçada de 1500 ft
plugim

TAF: BIRK 292238Z 3000/3100 23015KT 9999 -DZ SCT024 BKN030 TX06/3012Z TN04/3003Z TEMPO 3003/3100 4000 DZ BKN009 OVC015

Observacions i pronòstics meteorològics de més de 4000 aeroports (METAR i TAF).

Les estacions disponibles són els punts grocs i vermells al mapa.

Posi el ratolí al punt desitjat per veure el nom de l'estació.

Feu clic per veure les observacions i els pronòstics meteorològics.

Per canviar el mapa: feu clic els botons verds amb una creu de color negre per apropar; al botó verd amb un guió per allunyar la imatge; o en les fletxes verdes per a mapes adjacents.


METAR-TAF: